sensor_id;sensor_type;location;lat;lon;timestamp;temperature;humidity
3684;DHT22;1858;48.716;9.648;2023-04-12T00:01:53;9.10;99.90
3684;DHT22;1858;48.716;9.648;2023-04-12T00:04:21;9.20;99.90
3684;DHT22;1858;48.716;9.648;2023-04-12T00:06:51;9.20;99.90
3684;DHT22;1858;48.716;9.648;2023-04-12T00:09:20;9.10;99.90
3684;DHT22;1858;48.716;9.648;2023-04-12T00:11:49;9.30;99.90
3684;DHT22;1858;48.716;9.648;2023-04-12T00:14:18;9.30;99.90
3684;DHT22;1858;48.716;9.648;2023-04-12T00:16:47;9.40;99.90
3684;DHT22;1858;48.716;9.648;2023-04-12T00:19:16;9.40;99.90
3684;DHT22;1858;48.716;9.648;2023-04-12T00:21:45;9.40;99.90
3684;DHT22;1858;48.716;9.648;2023-04-12T00:24:13;9.50;99.90
3684;DHT22;1858;48.716;9.648;2023-04-12T00:26:42;9.70;99.90
3684;DHT22;1858;48.716;9.648;2023-04-12T00:29:10;9.70;99.90
3684;DHT22;1858;48.716;9.648;2023-04-12T00:31:38;9.70;99.90
3684;DHT22;1858;48.716;9.648;2023-04-12T00:34:07;9.80;99.90
3684;DHT22;1858;48.716;9.648;2023-04-12T00:36:35;9.70;99.90
3684;DHT22;1858;48.716;9.648;2023-04-12T00:39:04;9.70;99.90
3684;DHT22;1858;48.716;9.648;2023-04-12T00:41:34;9.70;99.90
3684;DHT22;1858;48.716;9.648;2023-04-12T00:44:02;9.80;99.90
3684;DHT22;1858;48.716;9.648;2023-04-12T00:46:32;9.70;99.90
3684;DHT22;1858;48.716;9.648;2023-04-12T00:49:01;9.70;99.90
3684;DHT22;1858;48.716;9.648;2023-04-12T00:51:31;9.70;99.90
3684;DHT22;1858;48.716;9.648;2023-04-12T00:54:00;9.70;99.90
3684;DHT22;1858;48.716;9.648;2023-04-12T00:56:29;9.80;99.90
3684;DHT22;1858;48.716;9.648;2023-04-12T00:58:58;9.80;1.00
3684;DHT22;1858;48.716;9.648;2023-04-12T01:01:28;9.80;1.00
3684;DHT22;1858;48.716;9.648;2023-04-12T01:03:58;9.90;1.00
3684;DHT22;1858;48.716;9.648;2023-04-12T01:09:26;9.80;1.00
3684;DHT22;1858;48.716;9.648;2023-04-12T01:12:06;10.00;1.00
3684;DHT22;1858;48.716;9.648;2023-04-12T01:17:20;9.80;1.00
3684;DHT22;1858;48.716;9.648;2023-04-12T01:20:04;9.90;1.00
3684;DHT22;1858;48.716;9.648;2023-04-12T01:23:07;9.90;1.00
3684;DHT22;1858;48.716;9.648;2023-04-12T01:28:34;9.90;1.00
3684;DHT22;1858;48.716;9.648;2023-04-12T01:31:04;9.90;1.00
3684;DHT22;1858;48.716;9.648;2023-04-12T01:33:36;9.90;1.00
3684;DHT22;1858;48.716;9.648;2023-04-12T01:36:22;9.90;1.00
3684;DHT22;1858;48.716;9.648;2023-04-12T01:38:54;9.90;1.00
3684;DHT22;1858;48.716;9.648;2023-04-12T01:41:23;10.00;33.60
3684;DHT22;1858;48.716;9.648;2023-04-12T01:43:51;10.00;60.30
3684;DHT22;1858;48.716;9.648;2023-04-12T01:46:22;10.00;77.60
3684;DHT22;1858;48.716;9.648;2023-04-12T01:48:52;10.00;99.90
3684;DHT22;1858;48.716;9.648;2023-04-12T01:54:20;10.10;99.90
3684;DHT22;1858;48.716;9.648;2023-04-12T01:56:46;10.10;99.90
3684;DHT22;1858;48.716;9.648;2023-04-12T01:59:16;10.10;99.90
3684;DHT22;1858;48.716;9.648;2023-04-12T02:01:46;10.00;99.90
3684;DHT22;1858;48.716;9.648;2023-04-12T02:04:16;10.10;99.90
3684;DHT22;1858;48.716;9.648;2023-04-12T02:06:46;10.00;99.90
3684;DHT22;1858;48.716;9.648;2023-04-12T02:09:15;10.10;99.90
3684;DHT22;1858;48.716;9.648;2023-04-12T02:11:47;10.10;99.90
3684;DHT22;1858;48.716;9.648;2023-04-12T02:14:16;10.10;99.90
3684;DHT22;1858;48.716;9.648;2023-04-12T02:16:45;10.10;99.90
3684;DHT22;1858;48.716;9.648;2023-04-12T02:19:15;10.00;99.90
3684;DHT22;1858;48.716;9.648;2023-04-12T02:21:44;10.00;99.90
3684;DHT22;1858;48.716;9.648;2023-04-12T02:24:14;10.00;99.90
3684;DHT22;1858;48.716;9.648;2023-04-12T02:26:43;10.00;99.90
3684;DHT22;1858;48.716;9.648;2023-04-12T02:29:12;10.00;99.90
3684;DHT22;1858;48.716;9.648;2023-04-12T02:31:40;9.70;99.90
3684;DHT22;1858;48.716;9.648;2023-04-12T02:34:09;9.60;99.90
3684;DHT22;1858;48.716;9.648;2023-04-12T02:36:39;9.60;99.90
3684;DHT22;1858;48.716;9.648;2023-04-12T02:39:07;9.50;99.90
3684;DHT22;1858;48.716;9.648;2023-04-12T02:41:36;9.40;99.90
3684;DHT22;1858;48.716;9.648;2023-04-12T02:44:04;9.30;99.90
3684;DHT22;1858;48.716;9.648;2023-04-12T02:46:33;9.20;99.90
3684;DHT22;1858;48.716;9.648;2023-04-12T02:49:01;9.20;1.00
3684;DHT22;1858;48.716;9.648;2023-04-12T02:51:30;9.20;99.90
3684;DHT22;1858;48.716;9.648;2023-04-12T02:53:58;9.20;1.00
3684;DHT22;1858;48.716;9.648;2023-04-12T02:56:27;9.10;99.90
3684;DHT22;1858;48.716;9.648;2023-04-12T02:58:56;9.10;1.00
3684;DHT22;1858;48.716;9.648;2023-04-12T03:01:24;9.00;1.00
3684;DHT22;1858;48.716;9.648;2023-04-12T03:03:52;9.00;1.00
3684;DHT22;1858;48.716;9.648;2023-04-12T03:06:21;8.90;1.00
3684;DHT22;1858;48.716;9.648;2023-04-12T03:08:49;8.90;1.00
3684;DHT22;1858;48.716;9.648;2023-04-12T03:11:18;8.90;1.00
3684;DHT22;1858;48.716;9.648;2023-04-12T03:13:46;9.00;1.00
3684;DHT22;1858;48.716;9.648;2023-04-12T03:16:24;9.00;1.00
3684;DHT22;1858;48.716;9.648;2023-04-12T03:18:52;8.90;1.00
3684;DHT22;1858;48.716;9.648;2023-04-12T03:21:21;8.80;1.00
3684;DHT22;1858;48.716;9.648;2023-04-12T03:23:49;8.70;1.00
3684;DHT22;1858;48.716;9.648;2023-04-12T03:26:19;8.60;55.80
3684;DHT22;1858;48.716;9.648;2023-04-12T03:28:47;8.60;99.90
3684;DHT22;1858;48.716;9.648;2023-04-12T03:31:15;8.40;99.90
3684;DHT22;1858;48.716;9.648;2023-04-12T03:33:45;8.30;99.90
3684;DHT22;1858;48.716;9.648;2023-04-12T03:36:14;8.20;1.00
3684;DHT22;1858;48.716;9.648;2023-04-12T03:38:42;8.20;1.00
3684;DHT22;1858;48.716;9.648;2023-04-12T03:41:11;8.20;1.00
3684;DHT22;1858;48.716;9.648;2023-04-12T03:43:39;8.20;1.00
3684;DHT22;1858;48.716;9.648;2023-04-12T03:46:09;8.20;1.00
3684;DHT22;1858;48.716;9.648;2023-04-12T03:48:37;8.20;5.70
3684;DHT22;1858;48.716;9.648;2023-04-12T03:51:06;8.10;88.10
3684;DHT22;1858;48.716;9.648;2023-04-12T03:53:34;8.20;99.90
3684;DHT22;1858;48.716;9.648;2023-04-12T03:56:03;8.10;99.90
3684;DHT22;1858;48.716;9.648;2023-04-12T03:58:32;8.10;99.90
3684;DHT22;1858;48.716;9.648;2023-04-12T04:01:02;8.10;99.90
3684;DHT22;1858;48.716;9.648;2023-04-12T04:03:32;8.00;99.90
3684;DHT22;1858;48.716;9.648;2023-04-12T04:06:03;8.00;99.90
3684;DHT22;1858;48.716;9.648;2023-04-12T04:08:32;8.00;99.90
3684;DHT22;1858;48.716;9.648;2023-04-12T04:11:00;8.00;99.90
3684;DHT22;1858;48.716;9.648;2023-04-12T04:13:29;8.10;99.90
3684;DHT22;1858;48.716;9.648;2023-04-12T04:16:05;8.20;99.90
3684;DHT22;1858;48.716;9.648;2023-04-12T04:18:34;8.10;99.90
3684;DHT22;1858;48.716;9.648;2023-04-12T04:21:02;8.10;99.90
3684;DHT22;1858;48.716;9.648;2023-04-12T04:23:32;8.00;99.90
3684;DHT22;1858;48.716;9.648;2023-04-12T04:26:07;8.00;99.90
3684;DHT22;1858;48.716;9.648;2023-04-12T04:28:40;8.10;99.90
3684;DHT22;1858;48.716;9.648;2023-04-12T04:31:11;8.10;1.00
3684;DHT22;1858;48.716;9.648;2023-04-12T04:33:42;8.10;99.90
3684;DHT22;1858;48.716;9.648;2023-04-12T04:36:13;8.10;99.90
3684;DHT22;1858;48.716;9.648;2023-04-12T04:38:42;8.10;99.90
3684;DHT22;1858;48.716;9.648;2023-04-12T04:41:11;8.00;99.90
3684;DHT22;1858;48.716;9.648;2023-04-12T04:43:47;8.00;99.90
3684;DHT22;1858;48.716;9.648;2023-04-12T04:46:13;7.90;99.90
3684;DHT22;1858;48.716;9.648;2023-04-12T04:48:42;7.80;1.00
3684;DHT22;1858;48.716;9.648;2023-04-12T04:51:12;7.70;1.00
3684;DHT22;1858;48.716;9.648;2023-04-12T04:53:41;7.90;23.20
3684;DHT22;1858;48.716;9.648;2023-04-12T04:56:13;7.80;1.00
3684;DHT22;1858;48.716;9.648;2023-04-12T04:58:41;7.90;15.00
3684;DHT22;1858;48.716;9.648;2023-04-12T05:01:13;7.80;42.60
3684;DHT22;1858;48.716;9.648;2023-04-12T05:03:43;7.70;68.10
3684;DHT22;1858;48.716;9.648;2023-04-12T05:06:11;7.70;99.90
3684;DHT22;1858;48.716;9.648;2023-04-12T05:08:40;7.60;99.90
3684;DHT22;1858;48.716;9.648;2023-04-12T05:11:08;7.50;99.90
3684;DHT22;1858;48.716;9.648;2023-04-12T05:13:37;7.60;99.90
3684;DHT22;1858;48.716;9.648;2023-04-12T05:16:09;7.60;99.90
3684;DHT22;1858;48.716;9.648;2023-04-12T05:18:39;7.70;1.00
3684;DHT22;1858;48.716;9.648;2023-04-12T05:21:09;7.70;1.00
3684;DHT22;1858;48.716;9.648;2023-04-12T05:23:44;7.60;1.00
3684;DHT22;1858;48.716;9.648;2023-04-12T05:26:14;7.60;1.00
3684;DHT22;1858;48.716;9.648;2023-04-12T05:28:45;7.60;1.00
3684;DHT22;1858;48.716;9.648;2023-04-12T05:31:14;7.60;1.00
3684;DHT22;1858;48.716;9.648;2023-04-12T05:33:48;7.70;1.00
3684;DHT22;1858;48.716;9.648;2023-04-12T05:36:19;7.80;1.00
3684;DHT22;1858;48.716;9.648;2023-04-12T05:38:47;7.80;1.00
3684;DHT22;1858;48.716;9.648;2023-04-12T05:41:16;7.70;1.00
3684;DHT22;1858;48.716;9.648;2023-04-12T05:43:45;7.80;1.00
3684;DHT22;1858;48.716;9.648;2023-04-12T05:46:14;7.80;1.00
3684;DHT22;1858;48.716;9.648;2023-04-12T05:48:43;7.80;1.00
3684;DHT22;1858;48.716;9.648;2023-04-12T05:51:11;7.90;1.00
3684;DHT22;1858;48.716;9.648;2023-04-12T05:53:47;7.80;1.00
3684;DHT22;1858;48.716;9.648;2023-04-12T05:56:11;7.90;1.00
3684;DHT22;1858;48.716;9.648;2023-04-12T05:58:41;7.90;1.00
3684;DHT22;1858;48.716;9.648;2023-04-12T06:01:10;8.00;1.00
3684;DHT22;1858;48.716;9.648;2023-04-12T06:03:39;8.00;1.00
3684;DHT22;1858;48.716;9.648;2023-04-12T06:06:15;8.00;1.00
3684;DHT22;1858;48.716;9.648;2023-04-12T06:08:40;8.10;1.00
3684;DHT22;1858;48.716;9.648;2023-04-12T06:11:22;7.90;1.00
3684;DHT22;1858;48.716;9.648;2023-04-12T06:13:51;7.90;1.00
3684;DHT22;1858;48.716;9.648;2023-04-12T06:16:20;7.90;1.00
3684;DHT22;1858;48.716;9.648;2023-04-12T06:18:52;7.90;1.00
3684;DHT22;1858;48.716;9.648;2023-04-12T06:21:21;8.00;1.00
3684;DHT22;1858;48.716;9.648;2023-04-12T06:23:53;8.00;1.00
3684;DHT22;1858;48.716;9.648;2023-04-12T06:26:26;8.10;1.00
3684;DHT22;1858;48.716;9.648;2023-04-12T06:28:55;8.00;1.00
3684;DHT22;1858;48.716;9.648;2023-04-12T06:31:27;8.10;1.00
3684;DHT22;1858;48.716;9.648;2023-04-12T06:33:56;8.10;1.00
3684;DHT22;1858;48.716;9.648;2023-04-12T06:36:25;8.00;1.00
3684;DHT22;1858;48.716;9.648;2023-04-12T06:39:02;8.00;1.00
3684;DHT22;1858;48.716;9.648;2023-04-12T06:41:27;8.10;1.00
3684;DHT22;1858;48.716;9.648;2023-04-12T06:44:04;8.00;1.00
3684;DHT22;1858;48.716;9.648;2023-04-12T06:46:28;8.10;1.00
3684;DHT22;1858;48.716;9.648;2023-04-12T06:48:57;8.20;1.00
3684;DHT22;1858;48.716;9.648;2023-04-12T06:51:27;8.10;1.00
3684;DHT22;1858;48.716;9.648;2023-04-12T06:53:56;8.00;1.00
3684;DHT22;1858;48.716;9.648;2023-04-12T06:56:24;8.10;1.00
3684;DHT22;1858;48.716;9.648;2023-04-12T06:58:53;8.10;1.00
3684;DHT22;1858;48.716;9.648;2023-04-12T07:01:23;8.10;1.00
3684;DHT22;1858;48.716;9.648;2023-04-12T07:03:52;8.10;1.00
3684;DHT22;1858;48.716;9.648;2023-04-12T07:06:21;8.20;1.00
3684;DHT22;1858;48.716;9.648;2023-04-12T07:08:50;8.10;1.00
3684;DHT22;1858;48.716;9.648;2023-04-12T07:11:20;8.10;1.00
3684;DHT22;1858;48.716;9.648;2023-04-12T07:13:49;8.10;1.00
3684;DHT22;1858;48.716;9.648;2023-04-12T07:16:18;8.20;1.00
3684;DHT22;1858;48.716;9.648;2023-04-12T07:18:50;8.20;1.00
3684;DHT22;1858;48.716;9.648;2023-04-12T07:21:20;8.30;1.00
3684;DHT22;1858;48.716;9.648;2023-04-12T07:23:51;8.30;1.00
3684;DHT22;1858;48.716;9.648;2023-04-12T07:26:21;8.20;1.00
3684;DHT22;1858;48.716;9.648;2023-04-12T07:28:51;8.30;1.00
3684;DHT22;1858;48.716;9.648;2023-04-12T07:31:23;8.30;1.00
3684;DHT22;1858;48.716;9.648;2023-04-12T07:33:52;8.30;1.00
3684;DHT22;1858;48.716;9.648;2023-04-12T07:36:20;8.30;1.00
3684;DHT22;1858;48.716;9.648;2023-04-12T07:38:50;8.40;1.00
3684;DHT22;1858;48.716;9.648;2023-04-12T07:41:25;8.30;1.00
3684;DHT22;1858;48.716;9.648;2023-04-12T07:43:59;8.50;1.00
3684;DHT22;1858;48.716;9.648;2023-04-12T07:46:27;8.70;1.00
3684;DHT22;1858;48.716;9.648;2023-04-12T07:48:55;8.60;1.00
3684;DHT22;1858;48.716;9.648;2023-04-12T07:51:27;8.80;1.00
3684;DHT22;1858;48.716;9.648;2023-04-12T07:53:57;8.80;1.00
3684;DHT22;1858;48.716;9.648;2023-04-12T07:56:33;8.80;1.00
3684;DHT22;1858;48.716;9.648;2023-04-12T07:58:59;9.00;1.00
3684;DHT22;1858;48.716;9.648;2023-04-12T08:01:28;8.90;1.00
3684;DHT22;1858;48.716;9.648;2023-04-12T08:04:03;9.00;1.00
3684;DHT22;1858;48.716;9.648;2023-04-12T08:06:28;9.00;1.00
3684;DHT22;1858;48.716;9.648;2023-04-12T08:08:57;9.10;1.00
3684;DHT22;1858;48.716;9.648;2023-04-12T08:11:27;9.00;1.00
3684;DHT22;1858;48.716;9.648;2023-04-12T08:13:56;8.90;1.00
3684;DHT22;1858;48.716;9.648;2023-04-12T08:16:25;8.90;1.00
3684;DHT22;1858;48.716;9.648;2023-04-12T08:18:59;9.00;1.00
3684;DHT22;1858;48.716;9.648;2023-04-12T08:21:26;8.90;1.00
3684;DHT22;1858;48.716;9.648;2023-04-12T08:23:56;8.90;1.00
3684;DHT22;1858;48.716;9.648;2023-04-12T08:26:25;9.00;1.00
3684;DHT22;1858;48.716;9.648;2023-04-12T08:28:55;9.00;1.00
3684;DHT22;1858;48.716;9.648;2023-04-12T08:31:26;9.10;1.00
3684;DHT22;1858;48.716;9.648;2023-04-12T08:33:57;9.00;1.00
3684;DHT22;1858;48.716;9.648;2023-04-12T08:36:26;9.10;1.00
3684;DHT22;1858;48.716;9.648;2023-04-12T08:39:02;9.20;1.00
3684;DHT22;1858;48.716;9.648;2023-04-12T08:41:32;9.30;1.00
3684;DHT22;1858;48.716;9.648;2023-04-12T08:44:04;9.40;1.00
3684;DHT22;1858;48.716;9.648;2023-04-12T08:46:34;9.50;1.00
3684;DHT22;1858;48.716;9.648;2023-04-12T08:49:03;9.50;1.00
3684;DHT22;1858;48.716;9.648;2023-04-12T08:51:33;9.50;1.00
3684;DHT22;1858;48.716;9.648;2023-04-12T08:54:05;9.50;1.00
3684;DHT22;1858;48.716;9.648;2023-04-12T08:56:36;9.60;1.00
3684;DHT22;1858;48.716;9.648;2023-04-12T08:59:07;9.60;1.00
3684;DHT22;1858;48.716;9.648;2023-04-12T09:01:40;9.60;99.90
3684;DHT22;1858;48.716;9.648;2023-04-12T09:04:08;9.60;99.90
3684;DHT22;1858;48.716;9.648;2023-04-12T09:06:38;9.60;99.90
3684;DHT22;1858;48.716;9.648;2023-04-12T09:09:09;9.60;99.90
3684;DHT22;1858;48.716;9.648;2023-04-12T09:11:43;9.60;99.90
3684;DHT22;1858;48.716;9.648;2023-04-12T09:14:28;9.70;99.90
3684;DHT22;1858;48.716;9.648;2023-04-12T09:16:57;9.80;99.90
3684;DHT22;1858;48.716;9.648;2023-04-12T09:19:35;9.80;99.90
3684;DHT22;1858;48.716;9.648;2023-04-12T09:22:04;9.90;1.00
3684;DHT22;1858;48.716;9.648;2023-04-12T09:24:44;9.80;1.00
3684;DHT22;1858;48.716;9.648;2023-04-12T09:27:06;9.70;1.00
3684;DHT22;1858;48.716;9.648;2023-04-12T09:29:35;9.80;1.00
3684;DHT22;1858;48.716;9.648;2023-04-12T09:32:05;9.80;59.50
3684;DHT22;1858;48.716;9.648;2023-04-12T09:34:35;9.80;99.90
3684;DHT22;1858;48.716;9.648;2023-04-12T09:37:15;9.90;99.90
3684;DHT22;1858;48.716;9.648;2023-04-12T09:39:45;10.00;99.90
3684;DHT22;1858;48.716;9.648;2023-04-12T09:42:14;10.00;99.90
3684;DHT22;1858;48.716;9.648;2023-04-12T09:44:42;10.00;99.90
3684;DHT22;1858;48.716;9.648;2023-04-12T09:47:12;10.10;1.00
3684;DHT22;1858;48.716;9.648;2023-04-12T09:49:42;10.20;1.00
3684;DHT22;1858;48.716;9.648;2023-04-12T09:52:13;10.30;1.00
3684;DHT22;1858;48.716;9.648;2023-04-12T09:54:43;10.50;1.00
3684;DHT22;1858;48.716;9.648;2023-04-12T09:57:13;10.70;1.00
3684;DHT22;1858;48.716;9.648;2023-04-12T09:59:44;10.70;99.90
3684;DHT22;1858;48.716;9.648;2023-04-12T10:02:15;10.70;99.90
3684;DHT22;1858;48.716;9.648;2023-04-12T10:04:46;10.80;53.20
3684;DHT22;1858;48.716;9.648;2023-04-12T10:07:15;10.60;1.00
3684;DHT22;1858;48.716;9.648;2023-04-12T10:09:45;10.70;99.90
3684;DHT22;1858;48.716;9.648;2023-04-12T10:12:15;10.70;99.90
3684;DHT22;1858;48.716;9.648;2023-04-12T10:14:45;10.70;99.90
3684;DHT22;1858;48.716;9.648;2023-04-12T10:17:14;10.70;99.90
3684;DHT22;1858;48.716;9.648;2023-04-12T10:19:44;10.70;99.90
3684;DHT22;1858;48.716;9.648;2023-04-12T10:22:16;10.80;99.90
3684;DHT22;1858;48.716;9.648;2023-04-12T10:24:44;10.90;1.00
3684;DHT22;1858;48.716;9.648;2023-04-12T10:27:23;10.80;99.90
3684;DHT22;1858;48.716;9.648;2023-04-12T10:29:45;10.90;99.90
3684;DHT22;1858;48.716;9.648;2023-04-12T10:32:23;11.00;1.00
3684;DHT22;1858;48.716;9.648;2023-04-12T10:35:02;11.20;99.90
3684;DHT22;1858;48.716;9.648;2023-04-12T10:40:31;11.70;99.90
3684;DHT22;1858;48.716;9.648;2023-04-12T10:45:49;12.30;99.90
3684;DHT22;1858;48.716;9.648;2023-04-12T10:48:38;12.60;1.00
3684;DHT22;1858;48.716;9.648;2023-04-12T10:51:17;12.70;1.00
3684;DHT22;1858;48.716;9.648;2023-04-12T10:56:45;13.00;99.90
3684;DHT22;1858;48.716;9.648;2023-04-12T10:59:14;13.10;99.90
3684;DHT22;1858;48.716;9.648;2023-04-12T11:02:10;13.40;1.00
3684;DHT22;1858;48.716;9.648;2023-04-12T11:07:38;13.50;1.00
3684;DHT22;1858;48.716;9.648;2023-04-12T11:10:14;13.60;1.00
3684;DHT22;1858;48.716;9.648;2023-04-12T11:12:52;13.60;1.00
3684;DHT22;1858;48.716;9.648;2023-04-12T11:15:27;13.60;1.00
3684;DHT22;1858;48.716;9.648;2023-04-12T11:17:57;13.60;99.90
3684;DHT22;1858;48.716;9.648;2023-04-12T11:20:27;13.70;99.90
3684;DHT22;1858;48.716;9.648;2023-04-12T11:22:58;13.70;99.90
3684;DHT22;1858;48.716;9.648;2023-04-12T11:25:28;13.80;99.90
3684;DHT22;1858;48.716;9.648;2023-04-12T11:27:56;14.00;99.90
3684;DHT22;1858;48.716;9.648;2023-04-12T11:30:25;14.40;99.90
3684;DHT22;1858;48.716;9.648;2023-04-12T11:32:59;14.70;69.20
3684;DHT22;1858;48.716;9.648;2023-04-12T11:35:28;15.10;92.00
3684;DHT22;1858;48.716;9.648;2023-04-12T11:37:57;15.40;28.20
3684;DHT22;1858;48.716;9.648;2023-04-12T11:40:27;15.70;1.00
3684;DHT22;1858;48.716;9.648;2023-04-12T11:42:56;15.80;1.00
3684;DHT22;1858;48.716;9.648;2023-04-12T11:45:25;16.00;1.00
3684;DHT22;1858;48.716;9.648;2023-04-12T11:47:55;16.10;1.00
3684;DHT22;1858;48.716;9.648;2023-04-12T11:50:28;16.20;1.00
3684;DHT22;1858;48.716;9.648;2023-04-12T11:53:14;16.10;1.00
3684;DHT22;1858;48.716;9.648;2023-04-12T11:58:25;15.80;1.00
3684;DHT22;1858;48.716;9.648;2023-04-12T12:00:55;15.80;1.00
3684;DHT22;1858;48.716;9.648;2023-04-12T12:03:26;15.70;1.00
3684;DHT22;1858;48.716;9.648;2023-04-12T12:06:00;15.40;1.00
3684;DHT22;1858;48.716;9.648;2023-04-12T12:08:29;15.50;1.00
3684;DHT22;1858;48.716;9.648;2023-04-12T12:10:59;15.40;1.00
3684;DHT22;1858;48.716;9.648;2023-04-12T12:16:17;15.30;1.00
3684;DHT22;1858;48.716;9.648;2023-04-12T12:18:48;15.50;1.00
3684;DHT22;1858;48.716;9.648;2023-04-12T12:21:17;15.50;1.00
3684;DHT22;1858;48.716;9.648;2023-04-12T12:23:47;15.50;1.00
3684;DHT22;1858;48.716;9.648;2023-04-12T12:26:23;15.60;1.00
3684;DHT22;1858;48.716;9.648;2023-04-12T12:28:55;15.60;1.00
3684;DHT22;1858;48.716;9.648;2023-04-12T12:31:25;15.60;1.00
3684;DHT22;1858;48.716;9.648;2023-04-12T12:34:01;15.60;1.00
3684;DHT22;1858;48.716;9.648;2023-04-12T12:36:37;15.50;1.00
3684;DHT22;1858;48.716;9.648;2023-04-12T12:39:09;15.50;1.00
3684;DHT22;1858;48.716;9.648;2023-04-12T12:41:38;15.50;1.00
3684;DHT22;1858;48.716;9.648;2023-04-12T12:44:15;15.60;1.00
3684;DHT22;1858;48.716;9.648;2023-04-12T12:46:41;15.60;1.00
3684;DHT22;1858;48.716;9.648;2023-04-12T12:49:10;15.60;1.00
3684;DHT22;1858;48.716;9.648;2023-04-12T12:51:42;15.80;1.00
3684;DHT22;1858;48.716;9.648;2023-04-12T12:54:11;16.00;1.00
3684;DHT22;1858;48.716;9.648;2023-04-12T12:56:40;16.20;1.00
3684;DHT22;1858;48.716;9.648;2023-04-12T12:59:08;16.50;1.00
3684;DHT22;1858;48.716;9.648;2023-04-12T13:01:39;16.60;1.00
3684;DHT22;1858;48.716;9.648;2023-04-12T13:04:07;16.60;1.00
3684;DHT22;1858;48.716;9.648;2023-04-12T13:06:36;16.60;1.00
3684;DHT22;1858;48.716;9.648;2023-04-12T13:09:05;16.70;1.00
3684;DHT22;1858;48.716;9.648;2023-04-12T13:11:34;16.80;1.00
3684;DHT22;1858;48.716;9.648;2023-04-12T13:14:04;16.80;1.00
3684;DHT22;1858;48.716;9.648;2023-04-12T13:16:33;16.80;1.00
3684;DHT22;1858;48.716;9.648;2023-04-12T13:19:05;16.60;1.00
3684;DHT22;1858;48.716;9.648;2023-04-12T13:21:36;16.60;1.00
3684;DHT22;1858;48.716;9.648;2023-04-12T13:24:05;16.70;1.00
3684;DHT22;1858;48.716;9.648;2023-04-12T13:26:35;16.80;1.00
3684;DHT22;1858;48.716;9.648;2023-04-12T13:29:13;16.80;99.90
3684;DHT22;1858;48.716;9.648;2023-04-12T13:31:38;16.70;1.40
3684;DHT22;1858;48.716;9.648;2023-04-12T13:34:06;16.70;1.00
3684;DHT22;1858;48.716;9.648;2023-04-12T13:36:35;16.70;99.90
3684;DHT22;1858;48.716;9.648;2023-04-12T13:39:04;16.80;99.90
3684;DHT22;1858;48.716;9.648;2023-04-12T13:41:33;16.80;99.90
3684;DHT22;1858;48.716;9.648;2023-04-12T13:44:06;16.70;99.90
3684;DHT22;1858;48.716;9.648;2023-04-12T13:46:35;16.60;99.90
3684;DHT22;1858;48.716;9.648;2023-04-12T13:49:10;16.60;99.90
3684;DHT22;1858;48.716;9.648;2023-04-12T13:51:39;16.40;99.90
3684;DHT22;1858;48.716;9.648;2023-04-12T13:54:07;16.40;99.90
3684;DHT22;1858;48.716;9.648;2023-04-12T13:56:36;16.40;99.90
3684;DHT22;1858;48.716;9.648;2023-04-12T13:59:12;16.30;99.90
3684;DHT22;1858;48.716;9.648;2023-04-12T14:01:39;16.20;99.90
3684;DHT22;1858;48.716;9.648;2023-04-12T14:04:11;16.10;99.90
3684;DHT22;1858;48.716;9.648;2023-04-12T14:06:40;16.20;99.90
3684;DHT22;1858;48.716;9.648;2023-04-12T14:09:31;16.20;99.90
3684;DHT22;1858;48.716;9.648;2023-04-12T14:11:46;16.30;99.90
3684;DHT22;1858;48.716;9.648;2023-04-12T14:14:15;16.30;99.90
3684;DHT22;1858;48.716;9.648;2023-04-12T14:16:44;16.40;99.90
3684;DHT22;1858;48.716;9.648;2023-04-12T14:19:14;16.40;99.90
3684;DHT22;1858;48.716;9.648;2023-04-12T14:21:43;16.30;99.90
3684;DHT22;1858;48.716;9.648;2023-04-12T14:24:15;16.20;99.90
3684;DHT22;1858;48.716;9.648;2023-04-12T14:26:44;16.30;99.90
3684;DHT22;1858;48.716;9.648;2023-04-12T14:29:13;16.30;99.90
3684;DHT22;1858;48.716;9.648;2023-04-12T14:31:41;16.30;99.90
3684;DHT22;1858;48.716;9.648;2023-04-12T14:34:10;16.30;99.90
3684;DHT22;1858;48.716;9.648;2023-04-12T14:36:39;16.40;99.90
3684;DHT22;1858;48.716;9.648;2023-04-12T14:39:08;16.40;99.90
3684;DHT22;1858;48.716;9.648;2023-04-12T14:41:38;16.40;99.90
3684;DHT22;1858;48.716;9.648;2023-04-12T14:44:07;16.40;99.90
3684;DHT22;1858;48.716;9.648;2023-04-12T14:46:36;16.40;99.90
3684;DHT22;1858;48.716;9.648;2023-04-12T14:49:06;16.30;99.90
3684;DHT22;1858;48.716;9.648;2023-04-12T14:51:38;16.30;99.90
3684;DHT22;1858;48.716;9.648;2023-04-12T14:54:07;16.20;99.90
3684;DHT22;1858;48.716;9.648;2023-04-12T14:56:36;16.10;99.90
3684;DHT22;1858;48.716;9.648;2023-04-12T14:59:09;16.10;99.90
3684;DHT22;1858;48.716;9.648;2023-04-12T15:01:37;16.00;99.90
3684;DHT22;1858;48.716;9.648;2023-04-12T15:04:06;16.00;99.90
3684;DHT22;1858;48.716;9.648;2023-04-12T15:06:39;16.00;99.90
3684;DHT22;1858;48.716;9.648;2023-04-12T15:09:15;16.10;99.90
3684;DHT22;1858;48.716;9.648;2023-04-12T15:11:44;16.20;99.90
3684;DHT22;1858;48.716;9.648;2023-04-12T15:14:16;16.30;99.90
3684;DHT22;1858;48.716;9.648;2023-04-12T15:16:47;16.30;99.90
3684;DHT22;1858;48.716;9.648;2023-04-12T15:19:29;16.20;99.90
3684;DHT22;1858;48.716;9.648;2023-04-12T15:21:58;16.20;99.90
3684;DHT22;1858;48.716;9.648;2023-04-12T15:24:27;16.20;99.90
3684;DHT22;1858;48.716;9.648;2023-04-12T15:26:58;16.20;99.90
3684;DHT22;1858;48.716;9.648;2023-04-12T15:29:31;16.20;99.90
3684;DHT22;1858;48.716;9.648;2023-04-12T15:32:01;16.30;99.90
3684;DHT22;1858;48.716;9.648;2023-04-12T15:34:30;16.40;99.90
3684;DHT22;1858;48.716;9.648;2023-04-12T15:37:00;16.40;99.90
3684;DHT22;1858;48.716;9.648;2023-04-12T15:39:28;16.40;99.90
3684;DHT22;1858;48.716;9.648;2023-04-12T15:41:57;16.30;99.90
3684;DHT22;1858;48.716;9.648;2023-04-12T15:44:27;16.30;99.90
3684;DHT22;1858;48.716;9.648;2023-04-12T15:46:58;16.30;99.90
3684;DHT22;1858;48.716;9.648;2023-04-12T15:49:27;16.10;99.90
3684;DHT22;1858;48.716;9.648;2023-04-12T15:51:56;16.00;99.90
3684;DHT22;1858;48.716;9.648;2023-04-12T15:54:25;15.90;99.90
3684;DHT22;1858;48.716;9.648;2023-04-12T15:56:54;15.90;99.90
3684;DHT22;1858;48.716;9.648;2023-04-12T15:59:31;15.70;99.90
3684;DHT22;1858;48.716;9.648;2023-04-12T16:02:04;15.30;99.90
3684;DHT22;1858;48.716;9.648;2023-04-12T16:04:40;15.00;99.90
3684;DHT22;1858;48.716;9.648;2023-04-12T16:07:04;14.50;1.00
3684;DHT22;1858;48.716;9.648;2023-04-12T16:09:32;13.90;1.00
3684;DHT22;1858;48.716;9.648;2023-04-12T16:12:01;13.50;1.00
3684;DHT22;1858;48.716;9.648;2023-04-12T16:14:31;13.30;1.00
3684;DHT22;1858;48.716;9.648;2023-04-12T16:17:00;13.10;1.00
3684;DHT22;1858;48.716;9.648;2023-04-12T16:19:28;12.90;1.00
3684;DHT22;1858;48.716;9.648;2023-04-12T16:21:57;12.80;25.70
3684;DHT22;1858;48.716;9.648;2023-04-12T16:24:27;12.80;64.30
3684;DHT22;1858;48.716;9.648;2023-04-12T16:26:56;12.80;99.90
3684;DHT22;1858;48.716;9.648;2023-04-12T16:29:25;12.80;96.00
3684;DHT22;1858;48.716;9.648;2023-04-12T16:31:56;12.70;58.20
3684;DHT22;1858;48.716;9.648;2023-04-12T16:34:25;12.80;48.50
3684;DHT22;1858;48.716;9.648;2023-04-12T16:36:54;12.70;13.30
3684;DHT22;1858;48.716;9.648;2023-04-12T16:39:23;12.70;8.20
3684;DHT22;1858;48.716;9.648;2023-04-12T16:41:52;12.50;1.00
3684;DHT22;1858;48.716;9.648;2023-04-12T16:44:20;12.30;11.30
3684;DHT22;1858;48.716;9.648;2023-04-12T16:46:52;12.20;37.60
3684;DHT22;1858;48.716;9.648;2023-04-12T16:49:21;12.20;37.80
3684;DHT22;1858;48.716;9.648;2023-04-12T16:51:50;12.10;33.50
3684;DHT22;1858;48.716;9.648;2023-04-12T16:54:20;12.00;85.10
3684;DHT22;1858;48.716;9.648;2023-04-12T16:56:48;11.90;99.90
3684;DHT22;1858;48.716;9.648;2023-04-12T16:59:17;12.00;99.90
3684;DHT22;1858;48.716;9.648;2023-04-12T17:01:47;12.00;99.90
3684;DHT22;1858;48.716;9.648;2023-04-12T17:04:15;12.00;99.90
3684;DHT22;1858;48.716;9.648;2023-04-12T17:06:44;12.10;99.90